sensor_id;sensor_type;location;lat;lon;timestamp;temperature;humidity
680;DHT22;322;48.846;9.230;2023-05-16T00:01:33;10.70;99.90
680;DHT22;322;48.846;9.230;2023-05-16T00:04:01;10.70;99.90
680;DHT22;322;48.846;9.230;2023-05-16T00:06:31;10.70;99.90
680;DHT22;322;48.846;9.230;2023-05-16T00:09:01;10.60;99.90
680;DHT22;322;48.846;9.230;2023-05-16T00:11:29;10.60;99.90
680;DHT22;322;48.846;9.230;2023-05-16T00:13:57;10.50;99.90
680;DHT22;322;48.846;9.230;2023-05-16T00:16:26;10.50;99.90
680;DHT22;322;48.846;9.230;2023-05-16T00:18:55;10.50;99.90
680;DHT22;322;48.846;9.230;2023-05-16T00:21:25;10.50;99.90
680;DHT22;322;48.846;9.230;2023-05-16T00:23:54;10.30;99.90
680;DHT22;322;48.846;9.230;2023-05-16T00:26:22;10.30;99.90
680;DHT22;322;48.846;9.230;2023-05-16T00:28:50;10.30;99.90
680;DHT22;322;48.846;9.230;2023-05-16T00:31:18;10.30;99.90
680;DHT22;322;48.846;9.230;2023-05-16T00:33:46;10.40;99.90
680;DHT22;322;48.846;9.230;2023-05-16T00:36:14;10.50;99.90
680;DHT22;322;48.846;9.230;2023-05-16T00:38:42;10.60;99.90
680;DHT22;322;48.846;9.230;2023-05-16T00:41:12;10.60;99.90
680;DHT22;322;48.846;9.230;2023-05-16T00:43:40;10.50;99.90
680;DHT22;322;48.846;9.230;2023-05-16T00:46:07;10.50;99.90
680;DHT22;322;48.846;9.230;2023-05-16T00:48:35;10.50;99.90
680;DHT22;322;48.846;9.230;2023-05-16T00:51:03;10.50;99.90
680;DHT22;322;48.846;9.230;2023-05-16T00:53:35;10.40;99.90
680;DHT22;322;48.846;9.230;2023-05-16T00:56:04;10.30;99.90
680;DHT22;322;48.846;9.230;2023-05-16T00:58:33;10.30;99.90
680;DHT22;322;48.846;9.230;2023-05-16T01:01:02;10.20;99.90
680;DHT22;322;48.846;9.230;2023-05-16T01:03:30;10.10;99.90
680;DHT22;322;48.846;9.230;2023-05-16T01:05:59;10.20;99.90
680;DHT22;322;48.846;9.230;2023-05-16T01:08:27;10.20;99.90
680;DHT22;322;48.846;9.230;2023-05-16T01:11:01;10.10;99.90
680;DHT22;322;48.846;9.230;2023-05-16T01:13:41;10.20;99.90
680;DHT22;322;48.846;9.230;2023-05-16T01:16:15;10.20;99.90
680;DHT22;322;48.846;9.230;2023-05-16T01:18:52;10.20;99.90
680;DHT22;322;48.846;9.230;2023-05-16T01:21:34;10.00;99.90
680;DHT22;322;48.846;9.230;2023-05-16T01:24:12;10.00;99.90
680;DHT22;322;48.846;9.230;2023-05-16T01:26:43;10.10;99.90
680;DHT22;322;48.846;9.230;2023-05-16T01:29:12;10.10;99.90
680;DHT22;322;48.846;9.230;2023-05-16T01:31:40;10.10;99.90
680;DHT22;322;48.846;9.230;2023-05-16T01:34:08;10.10;99.90
680;DHT22;322;48.846;9.230;2023-05-16T01:36:42;10.10;99.90
680;DHT22;322;48.846;9.230;2023-05-16T01:39:15;10.20;99.90
680;DHT22;322;48.846;9.230;2023-05-16T01:41:52;10.20;99.90
680;DHT22;322;48.846;9.230;2023-05-16T01:44:24;10.20;99.90
680;DHT22;322;48.846;9.230;2023-05-16T01:46:59;10.20;99.90
680;DHT22;322;48.846;9.230;2023-05-16T01:49:34;10.20;99.90
680;DHT22;322;48.846;9.230;2023-05-16T01:52:07;10.20;99.90
680;DHT22;322;48.846;9.230;2023-05-16T01:54:37;10.20;99.90
680;DHT22;322;48.846;9.230;2023-05-16T01:57:08;10.00;99.90
680;DHT22;322;48.846;9.230;2023-05-16T01:59:37;10.10;99.90
680;DHT22;322;48.846;9.230;2023-05-16T02:02:05;10.00;99.90
680;DHT22;322;48.846;9.230;2023-05-16T02:04:33;10.10;99.90
680;DHT22;322;48.846;9.230;2023-05-16T02:07:01;10.10;99.90
680;DHT22;322;48.846;9.230;2023-05-16T02:09:29;10.10;99.90
680;DHT22;322;48.846;9.230;2023-05-16T02:11:57;10.00;99.90
680;DHT22;322;48.846;9.230;2023-05-16T02:14:27;10.00;99.90
680;DHT22;322;48.846;9.230;2023-05-16T02:16:55;10.00;99.90
680;DHT22;322;48.846;9.230;2023-05-16T02:19:23;10.10;99.90
680;DHT22;322;48.846;9.230;2023-05-16T02:21:51;10.10;99.90
680;DHT22;322;48.846;9.230;2023-05-16T02:24:18;10.10;99.90
680;DHT22;322;48.846;9.230;2023-05-16T02:26:46;10.10;99.90
680;DHT22;322;48.846;9.230;2023-05-16T02:29:15;10.00;99.90
680;DHT22;322;48.846;9.230;2023-05-16T02:31:44;10.00;99.90
680;DHT22;322;48.846;9.230;2023-05-16T02:34:12;9.90;99.90
680;DHT22;322;48.846;9.230;2023-05-16T02:36:40;9.90;99.90
680;DHT22;322;48.846;9.230;2023-05-16T02:39:08;10.00;99.90
680;DHT22;322;48.846;9.230;2023-05-16T02:41:36;9.90;99.90
680;DHT22;322;48.846;9.230;2023-05-16T02:44:04;9.80;99.90
680;DHT22;322;48.846;9.230;2023-05-16T02:46:33;9.80;99.90
680;DHT22;322;48.846;9.230;2023-05-16T02:49:02;9.80;99.90
680;DHT22;322;48.846;9.230;2023-05-16T02:51:30;9.80;99.90
680;DHT22;322;48.846;9.230;2023-05-16T02:53:58;9.70;99.90
680;DHT22;322;48.846;9.230;2023-05-16T02:56:27;9.80;99.90
680;DHT22;322;48.846;9.230;2023-05-16T02:58:55;9.80;99.90
680;DHT22;322;48.846;9.230;2023-05-16T03:01:23;9.70;99.90
680;DHT22;322;48.846;9.230;2023-05-16T03:03:51;9.70;99.90
680;DHT22;322;48.846;9.230;2023-05-16T03:06:20;9.70;99.90
680;DHT22;322;48.846;9.230;2023-05-16T03:08:48;9.70;99.90
680;DHT22;322;48.846;9.230;2023-05-16T03:11:17;9.70;99.90
680;DHT22;322;48.846;9.230;2023-05-16T03:13:46;9.80;99.90
680;DHT22;322;48.846;9.230;2023-05-16T03:16:14;9.70;99.90
680;DHT22;322;48.846;9.230;2023-05-16T03:18:42;9.80;99.90
680;DHT22;322;48.846;9.230;2023-05-16T03:21:10;9.80;99.90
680;DHT22;322;48.846;9.230;2023-05-16T03:23:40;9.90;99.90
680;DHT22;322;48.846;9.230;2023-05-16T03:26:08;9.90;99.90
680;DHT22;322;48.846;9.230;2023-05-16T03:28:36;10.00;99.90
680;DHT22;322;48.846;9.230;2023-05-16T03:31:04;10.00;99.90
680;DHT22;322;48.846;9.230;2023-05-16T03:33:32;10.00;99.90
680;DHT22;322;48.846;9.230;2023-05-16T03:36:00;10.10;99.90
680;DHT22;322;48.846;9.230;2023-05-16T03:38:28;10.10;99.90
680;DHT22;322;48.846;9.230;2023-05-16T03:40:57;10.30;99.90
680;DHT22;322;48.846;9.230;2023-05-16T03:43:25;10.30;99.90
680;DHT22;322;48.846;9.230;2023-05-16T03:45:53;10.30;99.90
680;DHT22;322;48.846;9.230;2023-05-16T03:48:21;10.20;99.90
680;DHT22;322;48.846;9.230;2023-05-16T03:50:49;10.20;99.90
680;DHT22;322;48.846;9.230;2023-05-16T03:53:17;10.20;99.90
680;DHT22;322;48.846;9.230;2023-05-16T03:55:45;10.20;99.90
680;DHT22;322;48.846;9.230;2023-05-16T03:58:16;10.20;99.90
680;DHT22;322;48.846;9.230;2023-05-16T04:00:44;10.30;99.90
680;DHT22;322;48.846;9.230;2023-05-16T04:03:12;10.30;99.90
680;DHT22;322;48.846;9.230;2023-05-16T04:05:40;10.40;99.90
680;DHT22;322;48.846;9.230;2023-05-16T04:08:08;10.40;99.90
680;DHT22;322;48.846;9.230;2023-05-16T04:10:36;10.50;99.90
680;DHT22;322;48.846;9.230;2023-05-16T04:13:04;10.50;99.90
680;DHT22;322;48.846;9.230;2023-05-16T04:15:34;10.50;99.90
680;DHT22;322;48.846;9.230;2023-05-16T04:18:02;10.70;99.90
680;DHT22;322;48.846;9.230;2023-05-16T04:20:30;10.70;99.90
680;DHT22;322;48.846;9.230;2023-05-16T04:22:58;10.80;99.90
680;DHT22;322;48.846;9.230;2023-05-16T04:25:26;10.90;99.90
680;DHT22;322;48.846;9.230;2023-05-16T04:27:55;10.90;99.90
680;DHT22;322;48.846;9.230;2023-05-16T04:30:23;11.00;99.90
680;DHT22;322;48.846;9.230;2023-05-16T04:32:52;11.10;99.90
680;DHT22;322;48.846;9.230;2023-05-16T04:35:20;11.10;99.90
680;DHT22;322;48.846;9.230;2023-05-16T04:37:49;11.10;99.90
680;DHT22;322;48.846;9.230;2023-05-16T04:40:17;11.20;99.90
680;DHT22;322;48.846;9.230;2023-05-16T04:42:45;11.20;99.90
680;DHT22;322;48.846;9.230;2023-05-16T04:45:13;11.20;99.90
680;DHT22;322;48.846;9.230;2023-05-16T04:47:41;11.20;99.90
680;DHT22;322;48.846;9.230;2023-05-16T04:50:10;11.20;99.90
680;DHT22;322;48.846;9.230;2023-05-16T04:52:38;11.20;99.90
680;DHT22;322;48.846;9.230;2023-05-16T04:55:07;11.20;99.90
680;DHT22;322;48.846;9.230;2023-05-16T04:57:35;11.30;99.90
680;DHT22;322;48.846;9.230;2023-05-16T05:00:05;11.50;99.90
680;DHT22;322;48.846;9.230;2023-05-16T05:02:34;11.50;99.90
680;DHT22;322;48.846;9.230;2023-05-16T05:05:03;11.70;99.90
680;DHT22;322;48.846;9.230;2023-05-16T05:07:32;11.90;99.90
680;DHT22;322;48.846;9.230;2023-05-16T05:10:00;12.00;99.90
680;DHT22;322;48.846;9.230;2023-05-16T05:12:28;12.20;99.90
680;DHT22;322;48.846;9.230;2023-05-16T05:14:56;12.30;99.90
680;DHT22;322;48.846;9.230;2023-05-16T05:17:24;12.30;99.90
680;DHT22;322;48.846;9.230;2023-05-16T05:19:52;12.40;99.90
680;DHT22;322;48.846;9.230;2023-05-16T05:22:20;12.40;99.90
680;DHT22;322;48.846;9.230;2023-05-16T05:24:50;12.40;99.90
680;DHT22;322;48.846;9.230;2023-05-16T05:27:20;12.40;99.90
680;DHT22;322;48.846;9.230;2023-05-16T05:29:48;12.40;99.90
680;DHT22;322;48.846;9.230;2023-05-16T05:32:16;12.50;99.90
680;DHT22;322;48.846;9.230;2023-05-16T05:34:44;12.50;99.90
680;DHT22;322;48.846;9.230;2023-05-16T05:37:12;12.40;99.90
680;DHT22;322;48.846;9.230;2023-05-16T05:39:40;12.40;99.90
680;DHT22;322;48.846;9.230;2023-05-16T05:42:09;12.40;99.90
680;DHT22;322;48.846;9.230;2023-05-16T05:44:38;12.40;99.90
680;DHT22;322;48.846;9.230;2023-05-16T05:47:06;12.40;99.90
680;DHT22;322;48.846;9.230;2023-05-16T05:49:34;12.40;99.90
680;DHT22;322;48.846;9.230;2023-05-16T05:52:02;12.40;99.90
680;DHT22;322;48.846;9.230;2023-05-16T05:54:32;12.50;99.90
680;DHT22;322;48.846;9.230;2023-05-16T05:57:00;12.40;99.90
680;DHT22;322;48.846;9.230;2023-05-16T05:59:29;12.50;99.90
680;DHT22;322;48.846;9.230;2023-05-16T06:01:57;12.50;99.90
680;DHT22;322;48.846;9.230;2023-05-16T06:04:25;12.50;99.90
680;DHT22;322;48.846;9.230;2023-05-16T06:06:53;12.60;99.90
680;DHT22;322;48.846;9.230;2023-05-16T06:09:22;12.60;99.90
680;DHT22;322;48.846;9.230;2023-05-16T06:11:49;12.60;99.90
680;DHT22;322;48.846;9.230;2023-05-16T06:14:18;12.70;99.90
680;DHT22;322;48.846;9.230;2023-05-16T06:16:48;12.70;99.90
680;DHT22;322;48.846;9.230;2023-05-16T06:19:17;12.70;99.90
680;DHT22;322;48.846;9.230;2023-05-16T06:21:45;12.80;99.90
680;DHT22;322;48.846;9.230;2023-05-16T06:24:12;13.00;99.90
680;DHT22;322;48.846;9.230;2023-05-16T06:26:40;13.10;99.90
680;DHT22;322;48.846;9.230;2023-05-16T06:29:08;13.20;99.90
680;DHT22;322;48.846;9.230;2023-05-16T06:31:36;13.30;99.20
680;DHT22;322;48.846;9.230;2023-05-16T06:34:05;13.30;99.80
680;DHT22;322;48.846;9.230;2023-05-16T06:36:33;13.40;99.50
680;DHT22;322;48.846;9.230;2023-05-16T06:39:01;13.50;99.20
680;DHT22;322;48.846;9.230;2023-05-16T06:41:30;13.30;99.20
680;DHT22;322;48.846;9.230;2023-05-16T06:43:58;13.20;99.00
680;DHT22;322;48.846;9.230;2023-05-16T06:46:26;13.10;99.60
680;DHT22;322;48.846;9.230;2023-05-16T06:48:54;13.20;99.50
680;DHT22;322;48.846;9.230;2023-05-16T06:51:23;13.20;99.60
680;DHT22;322;48.846;9.230;2023-05-16T06:53:51;13.20;99.60
680;DHT22;322;48.846;9.230;2023-05-16T06:56:19;13.20;99.80
680;DHT22;322;48.846;9.230;2023-05-16T06:58:48;13.20;99.30
680;DHT22;322;48.846;9.230;2023-05-16T07:01:16;13.20;99.20
680;DHT22;322;48.846;9.230;2023-05-16T07:03:44;13.30;99.90
680;DHT22;322;48.846;9.230;2023-05-16T07:06:12;13.40;99.60
680;DHT22;322;48.846;9.230;2023-05-16T07:08:41;13.30;99.10
680;DHT22;322;48.846;9.230;2023-05-16T07:11:09;13.20;99.60
680;DHT22;322;48.846;9.230;2023-05-16T07:13:38;13.10;99.90
680;DHT22;322;48.846;9.230;2023-05-16T07:16:06;13.00;99.90
680;DHT22;322;48.846;9.230;2023-05-16T07:18:34;13.00;99.90
680;DHT22;322;48.846;9.230;2023-05-16T07:21:02;13.00;99.90
680;DHT22;322;48.846;9.230;2023-05-16T07:23:30;13.00;99.90
680;DHT22;322;48.846;9.230;2023-05-16T07:26:00;13.00;99.80
680;DHT22;322;48.846;9.230;2023-05-16T07:28:28;12.90;99.90
680;DHT22;322;48.846;9.230;2023-05-16T07:30:56;12.90;99.90
680;DHT22;322;48.846;9.230;2023-05-16T07:33:27;13.00;99.10
680;DHT22;322;48.846;9.230;2023-05-16T07:35:55;13.20;99.10
680;DHT22;322;48.846;9.230;2023-05-16T07:38:40;13.40;99.20
680;DHT22;322;48.846;9.230;2023-05-16T07:41:09;13.40;98.10
680;DHT22;322;48.846;9.230;2023-05-16T07:43:37;13.50;98.00
680;DHT22;322;48.846;9.230;2023-05-16T07:46:05;13.40;96.70
680;DHT22;322;48.846;9.230;2023-05-16T07:48:33;13.10;97.30
680;DHT22;322;48.846;9.230;2023-05-16T07:51:02;13.10;97.70
680;DHT22;322;48.846;9.230;2023-05-16T07:53:29;13.10;97.80
680;DHT22;322;48.846;9.230;2023-05-16T07:55:57;13.10;97.50
680;DHT22;322;48.846;9.230;2023-05-16T07:58:27;13.30;97.40
680;DHT22;322;48.846;9.230;2023-05-16T08:00:55;13.40;96.90
680;DHT22;322;48.846;9.230;2023-05-16T08:03:23;13.70;96.20
680;DHT22;322;48.846;9.230;2023-05-16T08:05:51;13.80;96.10
680;DHT22;322;48.846;9.230;2023-05-16T08:08:19;13.60;94.40
680;DHT22;322;48.846;9.230;2023-05-16T08:10:47;13.50;95.00
680;DHT22;322;48.846;9.230;2023-05-16T08:13:15;13.50;95.10
680;DHT22;322;48.846;9.230;2023-05-16T08:15:44;13.40;94.40
680;DHT22;322;48.846;9.230;2023-05-16T08:18:13;13.40;94.50
680;DHT22;322;48.846;9.230;2023-05-16T08:20:42;13.30;94.90
680;DHT22;322;48.846;9.230;2023-05-16T08:23:10;13.20;95.60
680;DHT22;322;48.846;9.230;2023-05-16T08:25:38;13.00;96.50
680;DHT22;322;48.846;9.230;2023-05-16T08:28:09;12.90;97.40
680;DHT22;322;48.846;9.230;2023-05-16T08:30:37;12.80;97.80
680;DHT22;322;48.846;9.230;2023-05-16T08:33:10;12.80;97.20
680;DHT22;322;48.846;9.230;2023-05-16T08:35:41;12.70;97.10
680;DHT22;322;48.846;9.230;2023-05-16T08:38:09;12.60;97.80
680;DHT22;322;48.846;9.230;2023-05-16T08:40:39;12.60;98.70
680;DHT22;322;48.846;9.230;2023-05-16T08:43:08;12.60;98.80
680;DHT22;322;48.846;9.230;2023-05-16T08:45:36;12.60;98.90
680;DHT22;322;48.846;9.230;2023-05-16T08:48:04;12.50;99.00
680;DHT22;322;48.846;9.230;2023-05-16T08:50:37;12.40;99.50
680;DHT22;322;48.846;9.230;2023-05-16T08:53:07;12.50;99.90
680;DHT22;322;48.846;9.230;2023-05-16T08:55:36;12.50;99.70
680;DHT22;322;48.846;9.230;2023-05-16T08:58:04;12.60;99.90
680;DHT22;322;48.846;9.230;2023-05-16T09:00:32;12.70;99.90
680;DHT22;322;48.846;9.230;2023-05-16T09:03:01;12.70;99.90
680;DHT22;322;48.846;9.230;2023-05-16T09:05:29;12.70;99.70
680;DHT22;322;48.846;9.230;2023-05-16T09:07:59;12.70;99.90
680;DHT22;322;48.846;9.230;2023-05-16T09:10:27;12.70;99.90
680;DHT22;322;48.846;9.230;2023-05-16T09:12:55;12.70;99.80
680;DHT22;322;48.846;9.230;2023-05-16T09:15:30;12.70;99.80
680;DHT22;322;48.846;9.230;2023-05-16T09:18:00;12.70;99.90
680;DHT22;322;48.846;9.230;2023-05-16T09:20:28;12.60;99.90
680;DHT22;322;48.846;9.230;2023-05-16T09:22:58;12.70;99.90
680;DHT22;322;48.846;9.230;2023-05-16T09:25:29;12.80;99.90
680;DHT22;322;48.846;9.230;2023-05-16T09:28:00;12.90;99.90
680;DHT22;322;48.846;9.230;2023-05-16T09:30:30;13.00;98.50
680;DHT22;322;48.846;9.230;2023-05-16T09:33:02;13.00;99.00
680;DHT22;322;48.846;9.230;2023-05-16T09:35:33;13.10;99.10
680;DHT22;322;48.846;9.230;2023-05-16T09:38:16;13.30;98.60
680;DHT22;322;48.846;9.230;2023-05-16T09:40:44;13.60;97.80
680;DHT22;322;48.846;9.230;2023-05-16T09:43:14;13.70;97.10
680;DHT22;322;48.846;9.230;2023-05-16T09:45:46;13.70;97.50
680;DHT22;322;48.846;9.230;2023-05-16T09:48:15;13.70;96.80
680;DHT22;322;48.846;9.230;2023-05-16T09:50:48;13.50;96.60
680;DHT22;322;48.846;9.230;2023-05-16T09:53:25;13.50;97.40
680;DHT22;322;48.846;9.230;2023-05-16T09:56:04;13.70;97.90
680;DHT22;322;48.846;9.230;2023-05-16T09:58:34;13.90;96.60
680;DHT22;322;48.846;9.230;2023-05-16T10:01:03;14.00;97.10
680;DHT22;322;48.846;9.230;2023-05-16T10:03:33;14.10;96.50
680;DHT22;322;48.846;9.230;2023-05-16T10:06:02;14.20;96.00
680;DHT22;322;48.846;9.230;2023-05-16T10:08:34;14.30;95.30
680;DHT22;322;48.846;9.230;2023-05-16T10:11:03;14.30;95.70
680;DHT22;322;48.846;9.230;2023-05-16T10:13:33;14.20;95.00
680;DHT22;322;48.846;9.230;2023-05-16T10:16:05;14.00;95.40
680;DHT22;322;48.846;9.230;2023-05-16T10:18:34;14.00;95.10
680;DHT22;322;48.846;9.230;2023-05-16T10:21:05;14.10;95.00
680;DHT22;322;48.846;9.230;2023-05-16T10:23:41;14.20;94.90
680;DHT22;322;48.846;9.230;2023-05-16T10:26:11;14.30;94.20
680;DHT22;322;48.846;9.230;2023-05-16T10:28:40;14.20;94.30
680;DHT22;322;48.846;9.230;2023-05-16T10:31:09;14.20;94.90
680;DHT22;322;48.846;9.230;2023-05-16T10:33:38;13.90;95.80
680;DHT22;322;48.846;9.230;2023-05-16T10:36:07;13.70;96.60
680;DHT22;322;48.846;9.230;2023-05-16T10:38:38;13.40;97.10
680;DHT22;322;48.846;9.230;2023-05-16T10:41:07;13.40;97.50
680;DHT22;322;48.846;9.230;2023-05-16T10:43:36;13.40;97.50
680;DHT22;322;48.846;9.230;2023-05-16T10:46:06;13.30;97.60
680;DHT22;322;48.846;9.230;2023-05-16T10:48:36;13.20;98.00
680;DHT22;322;48.846;9.230;2023-05-16T10:51:35;13.10;98.60
680;DHT22;322;48.846;9.230;2023-05-16T10:54:08;12.90;99.20
680;DHT22;322;48.846;9.230;2023-05-16T10:56:39;12.80;99.90
680;DHT22;322;48.846;9.230;2023-05-16T10:59:22;12.60;99.90
680;DHT22;322;48.846;9.230;2023-05-16T11:01:52;12.40;99.90
680;DHT22;322;48.846;9.230;2023-05-16T11:04:20;12.30;99.90
680;DHT22;322;48.846;9.230;2023-05-16T11:06:50;12.20;99.90
680;DHT22;322;48.846;9.230;2023-05-16T11:09:25;12.10;99.90
680;DHT22;322;48.846;9.230;2023-05-16T11:12:03;12.10;99.90
680;DHT22;322;48.846;9.230;2023-05-16T11:14:36;12.00;99.90
680;DHT22;322;48.846;9.230;2023-05-16T11:17:10;12.00;99.90
680;DHT22;322;48.846;9.230;2023-05-16T11:19:41;12.00;99.90
680;DHT22;322;48.846;9.230;2023-05-16T11:22:21;11.90;99.90
680;DHT22;322;48.846;9.230;2023-05-16T11:24:53;11.80;99.90
680;DHT22;322;48.846;9.230;2023-05-16T11:27:23;11.70;99.90
680;DHT22;322;48.846;9.230;2023-05-16T11:29:52;11.60;99.90
680;DHT22;322;48.846;9.230;2023-05-16T11:32:22;11.60;99.90
680;DHT22;322;48.846;9.230;2023-05-16T11:34:51;11.60;99.90
680;DHT22;322;48.846;9.230;2023-05-16T11:37:20;11.60;99.90
680;DHT22;322;48.846;9.230;2023-05-16T11:39:48;11.60;99.90
680;DHT22;322;48.846;9.230;2023-05-16T11:42:18;11.70;99.90
680;DHT22;322;48.846;9.230;2023-05-16T11:44:49;11.70;99.90
680;DHT22;322;48.846;9.230;2023-05-16T11:47:20;11.70;99.90
680;DHT22;322;48.846;9.230;2023-05-16T11:49:48;11.80;99.90
680;DHT22;322;48.846;9.230;2023-05-16T11:52:16;11.80;99.90
680;DHT22;322;48.846;9.230;2023-05-16T11:54:44;11.80;99.90
680;DHT22;322;48.846;9.230;2023-05-16T11:57:13;11.80;99.90
680;DHT22;322;48.846;9.230;2023-05-16T11:59:43;11.80;99.90
680;DHT22;322;48.846;9.230;2023-05-16T12:02:11;11.80;99.90
680;DHT22;322;48.846;9.230;2023-05-16T12:04:39;11.80;99.90
680;DHT22;322;48.846;9.230;2023-05-16T12:07:07;11.90;99.90
680;DHT22;322;48.846;9.230;2023-05-16T12:09:35;11.90;99.90
680;DHT22;322;48.846;9.230;2023-05-16T12:12:04;12.00;99.90
680;DHT22;322;48.846;9.230;2023-05-16T12:14:33;12.10;99.90
680;DHT22;322;48.846;9.230;2023-05-16T12:17:02;12.10;99.90
680;DHT22;322;48.846;9.230;2023-05-16T12:19:31;12.10;99.90
680;DHT22;322;48.846;9.230;2023-05-16T12:21:59;12.20;99.90
680;DHT22;322;48.846;9.230;2023-05-16T12:24:30;12.20;99.90
680;DHT22;322;48.846;9.230;2023-05-16T12:26:58;12.30;99.90
680;DHT22;322;48.846;9.230;2023-05-16T12:29:26;12.30;99.90
680;DHT22;322;48.846;9.230;2023-05-16T12:31:54;12.30;99.90
680;DHT22;322;48.846;9.230;2023-05-16T12:34:28;12.30;99.80
680;DHT22;322;48.846;9.230;2023-05-16T12:36:58;12.40;99.90
680;DHT22;322;48.846;9.230;2023-05-16T12:39:36;12.50;99.90
680;DHT22;322;48.846;9.230;2023-05-16T12:42:04;12.60;99.10
680;DHT22;322;48.846;9.230;2023-05-16T12:44:33;12.80;98.70
680;DHT22;322;48.846;9.230;2023-05-16T12:47:01;12.90;98.50
680;DHT22;322;48.846;9.230;2023-05-16T12:49:32;13.10;97.90
680;DHT22;322;48.846;9.230;2023-05-16T12:52:00;13.20;96.90
680;DHT22;322;48.846;9.230;2023-05-16T12:54:31;13.20;96.20
680;DHT22;322;48.846;9.230;2023-05-16T12:56:59;13.10;97.00
680;DHT22;322;48.846;9.230;2023-05-16T12:59:27;13.00;97.00
680;DHT22;322;48.846;9.230;2023-05-16T13:01:56;12.80;97.30
680;DHT22;322;48.846;9.230;2023-05-16T13:04:25;12.60;97.40
680;DHT22;322;48.846;9.230;2023-05-16T13:06:54;12.50;97.60
680;DHT22;322;48.846;9.230;2023-05-16T13:09:25;12.30;97.90
680;DHT22;322;48.846;9.230;2023-05-16T13:11:58;12.30;97.90
680;DHT22;322;48.846;9.230;2023-05-16T13:14:26;12.30;98.40
680;DHT22;322;48.846;9.230;2023-05-16T13:16:54;12.30;97.50
680;DHT22;322;48.846;9.230;2023-05-16T13:19:22;12.20;98.40
680;DHT22;322;48.846;9.230;2023-05-16T13:21:51;12.30;98.40
680;DHT22;322;48.846;9.230;2023-05-16T13:24:20;12.40;98.50
680;DHT22;322;48.846;9.230;2023-05-16T13:26:48;12.50;97.20
680;DHT22;322;48.846;9.230;2023-05-16T13:29:16;12.60;96.10
680;DHT22;322;48.846;9.230;2023-05-16T13:31:44;12.60;96.30
680;DHT22;322;48.846;9.230;2023-05-16T13:34:12;12.70;95.60
680;DHT22;322;48.846;9.230;2023-05-16T13:36:40;12.60;94.90
680;DHT22;322;48.846;9.230;2023-05-16T13:39:21;12.70;95.30
680;DHT22;322;48.846;9.230;2023-05-16T13:41:49;12.60;94.80
680;DHT22;322;48.846;9.230;2023-05-16T13:44:18;12.50;94.90
680;DHT22;322;48.846;9.230;2023-05-16T13:46:47;12.50;95.00
680;DHT22;322;48.846;9.230;2023-05-16T13:49:15;12.40;95.40
680;DHT22;322;48.846;9.230;2023-05-16T13:51:43;12.40;95.20
680;DHT22;322;48.846;9.230;2023-05-16T13:54:11;12.50;95.60
680;DHT22;322;48.846;9.230;2023-05-16T13:56:41;12.40;95.30
680;DHT22;322;48.846;9.230;2023-05-16T13:59:09;12.40;96.00
680;DHT22;322;48.846;9.230;2023-05-16T14:01:44;12.40;95.30
680;DHT22;322;48.846;9.230;2023-05-16T14:04:12;12.30;95.10
680;DHT22;322;48.846;9.230;2023-05-16T14:06:40;12.30;94.90
680;DHT22;322;48.846;9.230;2023-05-16T14:09:08;12.30;95.20
680;DHT22;322;48.846;9.230;2023-05-16T14:11:36;12.40;95.00
680;DHT22;322;48.846;9.230;2023-05-16T14:14:06;12.40;95.10
680;DHT22;322;48.846;9.230;2023-05-16T14:16:34;12.50;94.60
680;DHT22;322;48.846;9.230;2023-05-16T14:19:02;12.40;94.00
680;DHT22;322;48.846;9.230;2023-05-16T14:21:30;12.50;94.00
680;DHT22;322;48.846;9.230;2023-05-16T14:24:01;12.50;94.30
680;DHT22;322;48.846;9.230;2023-05-16T14:26:29;12.60;94.10
680;DHT22;322;48.846;9.230;2023-05-16T14:28:57;12.60;93.50
680;DHT22;322;48.846;9.230;2023-05-16T14:31:28;12.60;93.60
680;DHT22;322;48.846;9.230;2023-05-16T14:33:57;12.70;93.40
680;DHT22;322;48.846;9.230;2023-05-16T14:36:25;12.80;92.90
680;DHT22;322;48.846;9.230;2023-05-16T14:38:53;12.90;93.30
680;DHT22;322;48.846;9.230;2023-05-16T14:41:22;13.00;92.50
680;DHT22;322;48.846;9.230;2023-05-16T14:43:50;13.20;91.90
680;DHT22;322;48.846;9.230;2023-05-16T14:46:20;13.20;91.00
680;DHT22;322;48.846;9.230;2023-05-16T14:48:49;13.20;90.00
680;DHT22;322;48.846;9.230;2023-05-16T14:51:17;13.20;89.60
680;DHT22;322;48.846;9.230;2023-05-16T14:53:45;13.30;89.00
680;DHT22;322;48.846;9.230;2023-05-16T14:56:14;13.30;89.20
680;DHT22;322;48.846;9.230;2023-05-16T14:58:42;13.40;86.80
680;DHT22;322;48.846;9.230;2023-05-16T15:01:10;13.50;85.60
680;DHT22;322;48.846;9.230;2023-05-16T15:03:38;13.70;84.90
680;DHT22;322;48.846;9.230;2023-05-16T15:06:22;13.60;83.10
680;DHT22;322;48.846;9.230;2023-05-16T15:08:50;13.50;82.20
680;DHT22;322;48.846;9.230;2023-05-16T15:11:18;13.50;81.60
680;DHT22;322;48.846;9.230;2023-05-16T15:13:47;13.50;81.30
680;DHT22;322;48.846;9.230;2023-05-16T15:16:15;13.60;81.60
680;DHT22;322;48.846;9.230;2023-05-16T15:18:43;13.70;80.30
680;DHT22;322;48.846;9.230;2023-05-16T15:21:11;13.70;80.60
680;DHT22;322;48.846;9.230;2023-05-16T15:23:40;13.70;80.00
680;DHT22;322;48.846;9.230;2023-05-16T15:26:09;13.60;79.90
680;DHT22;322;48.846;9.230;2023-05-16T15:28:37;13.60;81.90
680;DHT22;322;48.846;9.230;2023-05-16T15:31:05;13.90;80.80
680;DHT22;322;48.846;9.230;2023-05-16T15:33:33;14.10;79.00
680;DHT22;322;48.846;9.230;2023-05-16T15:36:01;14.30;78.80
680;DHT22;322;48.846;9.230;2023-05-16T15:38:29;14.50;77.60
680;DHT22;322;48.846;9.230;2023-05-16T15:40:58;14.50;76.50
680;DHT22;322;48.846;9.230;2023-05-16T15:43:44;14.40;74.90
680;DHT22;322;48.846;9.230;2023-05-16T15:46:12;14.20;74.50
680;DHT22;322;48.846;9.230;2023-05-16T15:48:40;13.90;75.20
680;DHT22;322;48.846;9.230;2023-05-16T15:51:11;13.80;76.00
680;DHT22;322;48.846;9.230;2023-05-16T15:53:39;13.70;75.90
680;DHT22;322;48.846;9.230;2023-05-16T15:56:09;13.80;76.90
680;DHT22;322;48.846;9.230;2023-05-16T15:58:37;13.70;77.10
680;DHT22;322;48.846;9.230;2023-05-16T16:01:05;13.60;78.70
680;DHT22;322;48.846;9.230;2023-05-16T16:03:33;13.60;79.90
680;DHT22;322;48.846;9.230;2023-05-16T16:06:01;13.50;77.30
680;DHT22;322;48.846;9.230;2023-05-16T16:08:29;13.40;76.20
680;DHT22;322;48.846;9.230;2023-05-16T16:10:57;13.30;76.60
680;DHT22;322;48.846;9.230;2023-05-16T16:13:27;13.20;76.70
680;DHT22;322;48.846;9.230;2023-05-16T16:15:55;13.10;77.30
680;DHT22;322;48.846;9.230;2023-05-16T16:18:23;13.10;76.70
680;DHT22;322;48.846;9.230;2023-05-16T16:20:52;13.10;76.40
680;DHT22;322;48.846;9.230;2023-05-16T16:23:20;13.10;75.40
680;DHT22;322;48.846;9.230;2023-05-16T16:25:48;13.10;75.20
680;DHT22;322;48.846;9.230;2023-05-16T16:28:16;13.20;74.50
680;DHT22;322;48.846;9.230;2023-05-16T16:30:48;13.30;73.90
680;DHT22;322;48.846;9.230;2023-05-16T16:33:16;13.40;73.40
680;DHT22;322;48.846;9.230;2023-05-16T16:35:44;13.70;72.50
680;DHT22;322;48.846;9.230;2023-05-16T16:38:12;13.70;72.60
680;DHT22;322;48.846;9.230;2023-05-16T16:40:40;13.80;71.70
680;DHT22;322;48.846;9.230;2023-05-16T16:43:08;13.90;69.70
680;DHT22;322;48.846;9.230;2023-05-16T16:45:36;13.90;69.60
680;DHT22;322;48.846;9.230;2023-05-16T16:48:06;13.80;69.70